createdAt,value
2022-09-23T00:01:09.033Z,13.56
2022-09-23T00:03:38.154Z,13.39
2022-09-23T00:06:11.516Z,13.52
2022-09-23T00:08:39.303Z,13.61
2022-09-23T00:11:09.189Z,13.53
2022-09-23T00:13:37.812Z,13.38
2022-09-23T00:16:09.414Z,13.42
2022-09-23T00:18:36.395Z,13.44
2022-09-23T00:21:05.373Z,13.50
2022-09-23T00:23:32.517Z,13.51
2022-09-23T00:26:00.970Z,13.34
2022-09-23T00:28:27.914Z,13.21
2022-09-23T00:30:54.564Z,13.29
2022-09-23T00:33:21.221Z,13.30
2022-09-23T00:35:47.802Z,13.41
2022-09-23T00:38:14.410Z,13.16
2022-09-23T00:40:46.059Z,13.17
2022-09-23T00:43:14.817Z,13.18
2022-09-23T00:45:48.837Z,13.18
2022-09-23T00:48:20.401Z,13.06
2022-09-23T00:50:54.129Z,13.16
2022-09-23T00:53:23.702Z,13.16
2022-09-23T00:55:54.690Z,13.18
2022-09-23T00:58:31.189Z,12.89
2022-09-23T01:01:03.203Z,12.93
2022-09-23T01:03:31.832Z,13.06
2022-09-23T01:05:59.161Z,12.89
2022-09-23T01:08:27.244Z,12.99
2022-09-23T01:11:14.664Z,13.19
2022-09-23T01:14:13.454Z,12.98
2022-09-23T01:17:07.206Z,12.98
2022-09-23T01:19:46.638Z,12.89
2022-09-23T01:22:36.307Z,12.99
2022-09-23T01:25:22.572Z,12.78
2022-09-23T01:28:04.525Z,12.67
2022-09-23T01:30:36.961Z,12.68
2022-09-23T01:33:34.569Z,12.87
2022-09-23T01:36:10.486Z,12.88
2022-09-23T01:38:47.434Z,12.95
2022-09-23T01:41:45.289Z,12.88
2022-09-23T01:44:21.358Z,12.89
2022-09-23T01:46:53.197Z,12.87
2022-09-23T01:49:34.240Z,12.74
2022-09-23T01:52:16.533Z,12.71
2022-09-23T01:55:01.097Z,12.75
2022-09-23T01:57:37.324Z,12.82
2022-09-23T02:00:13.708Z,12.75
2022-09-23T02:02:47.991Z,12.76
2022-09-23T02:05:21.656Z,12.61
2022-09-23T02:07:59.567Z,12.64
2022-09-23T02:10:33.909Z,12.74
2022-09-23T02:13:06.255Z,12.71
2022-09-23T02:15:38.064Z,12.69
2022-09-23T02:18:16.994Z,12.55
2022-09-23T02:20:44.091Z,12.44
2022-09-23T02:23:27.375Z,12.59
2022-09-23T02:26:07.318Z,12.71
2022-09-23T02:29:18.173Z,12.41
2022-09-23T02:31:51.015Z,12.27
2022-09-23T02:34:26.373Z,12.24
2022-09-23T02:37:07.926Z,12.37
2022-09-23T02:40:06.958Z,12.22
2022-09-23T02:43:01.349Z,12.36
2022-09-23T02:45:28.245Z,12.37
2022-09-23T02:48:02.594Z,12.08
2022-09-23T02:50:30.846Z,12.23
2022-09-23T02:52:59.905Z,12.21
2022-09-23T02:55:31.377Z,12.11
2022-09-23T02:58:01.408Z,12.01
2022-09-23T03:00:53.865Z,12.13
2022-09-23T03:03:47.302Z,12.04
2022-09-23T03:06:37.373Z,12.16
2022-09-23T03:09:24.377Z,12.11
2022-09-23T03:12:01.714Z,12.08
2022-09-23T03:14:49.941Z,12.15
2022-09-23T03:17:38.004Z,12.06
2022-09-23T03:20:35.061Z,12.18
2022-09-23T03:23:07.770Z,12.01
2022-09-23T03:25:40.157Z,12.01
2022-09-23T03:28:08.538Z,11.89
2022-09-23T03:30:38.050Z,11.84
2022-09-23T03:33:09.253Z,11.88
2022-09-23T03:36:02.033Z,11.74
2022-09-23T03:38:34.973Z,11.67
2022-09-23T03:41:04.170Z,11.67
2022-09-23T03:43:36.521Z,11.60
2022-09-23T03:46:07.131Z,11.63
2022-09-23T03:48:33.958Z,11.72
2022-09-23T03:51:28.006Z,11.65
2022-09-23T03:53:54.645Z,11.48
2022-09-23T03:56:21.297Z,11.63
2022-09-23T03:58:48.743Z,11.44
2022-09-23T04:01:15.461Z,11.43
2022-09-23T04:03:42.211Z,11.60
2022-09-23T04:06:09.268Z,11.53
2022-09-23T04:08:36.022Z,11.60
2022-09-23T04:11:04.614Z,11.75
2022-09-23T04:13:31.768Z,11.65
2022-09-23T04:15:58.690Z,11.75
2022-09-23T04:18:25.432Z,11.67
2022-09-23T04:20:52.230Z,11.62
2022-09-23T04:23:18.958Z,11.54
2022-09-23T04:25:49.522Z,11.67
2022-09-23T04:28:17.181Z,11.56
2022-09-23T04:30:44.265Z,11.69
2022-09-23T04:33:11.702Z,11.57
2022-09-23T04:35:40.534Z,11.60
2022-09-23T04:38:07.515Z,11.72
2022-09-23T04:40:36.283Z,11.51
2022-09-23T04:43:03.209Z,11.59
2022-09-23T04:45:30.395Z,11.69
2022-09-23T04:47:58.349Z,11.41
2022-09-23T04:50:26.327Z,11.31
2022-09-23T04:52:53.946Z,11.20
2022-09-23T04:55:21.970Z,11.29
2022-09-23T04:57:48.579Z,11.41
2022-09-23T05:00:15.487Z,11.36
2022-09-23T05:02:44.256Z,11.28
2022-09-23T05:05:11.570Z,11.36
2022-09-23T05:07:38.710Z,11.31
2022-09-23T05:10:05.990Z,11.29
2022-09-23T05:12:32.759Z,11.33
2022-09-23T05:14:59.552Z,11.52
2022-09-23T05:17:26.287Z,11.61
2022-09-23T05:19:52.896Z,11.46
2022-09-23T05:22:19.574Z,11.62
2022-09-23T05:24:46.231Z,11.57
2022-09-23T05:27:13.045Z,11.45
2022-09-23T05:29:39.664Z,11.51
2022-09-23T05:32:06.295Z,11.46
2022-09-23T05:34:32.919Z,11.46
2022-09-23T05:36:59.557Z,11.50
2022-09-23T05:39:26.259Z,11.39
2022-09-23T05:41:53.794Z,11.59
2022-09-23T05:44:20.536Z,11.51
2022-09-23T05:46:47.259Z,11.44
2022-09-23T05:49:14.486Z,11.66
2022-09-23T05:51:41.181Z,11.68
2022-09-23T05:54:08.327Z,11.76
2022-09-23T05:56:37.156Z,11.55
2022-09-23T05:59:06.439Z,11.59
2022-09-23T06:01:35.220Z,11.62
2022-09-23T06:04:04.485Z,11.75
2022-09-23T06:06:36.749Z,11.75
2022-09-23T06:09:04.780Z,11.65
2022-09-23T06:11:33.401Z,11.64
2022-09-23T06:14:01.111Z,11.59
2022-09-23T06:16:29.844Z,11.63
2022-09-23T06:18:57.578Z,11.74
2022-09-23T06:21:26.408Z,11.80
2022-09-23T06:23:56.052Z,11.78
2022-09-23T06:26:23.289Z,11.92
2022-09-23T06:28:50.250Z,11.96
2022-09-23T06:31:17.426Z,11.99
2022-09-23T06:33:45.577Z,12.22
2022-09-23T06:36:19.071Z,12.22
2022-09-23T06:38:51.189Z,12.19
2022-09-23T06:41:18.092Z,12.04
2022-09-23T06:43:44.716Z,12.00
2022-09-23T06:46:15.646Z,11.96
2022-09-23T06:48:46.193Z,12.00
2022-09-23T06:51:20.072Z,12.18
2022-09-23T06:53:48.650Z,12.21
2022-09-23T06:56:39.101Z,12.19
2022-09-23T06:59:43.293Z,12.27
2022-09-23T07:02:47.232Z,12.25
2022-09-23T07:05:50.750Z,12.25
2022-09-23T07:08:55.015Z,12.34
2022-09-23T07:11:58.774Z,12.21
2022-09-23T07:15:02.688Z,12.30
2022-09-23T07:18:06.337Z,12.39
2022-09-23T07:21:11.783Z,12.47
2022-09-23T07:24:15.442Z,12.55
2022-09-23T07:27:19.418Z,12.71
2022-09-23T07:30:25.555Z,12.83
2022-09-23T07:33:32.573Z,13.06
2022-09-23T07:36:37.936Z,13.10
2022-09-23T07:39:41.540Z,12.99
2022-09-23T07:42:45.345Z,13.07
2022-09-23T07:45:49.197Z,13.28
2022-09-23T07:48:54.538Z,13.39
2022-09-23T07:51:59.947Z,13.70
2022-09-23T07:55:05.438Z,13.98
2022-09-23T07:58:09.419Z,14.13
2022-09-23T08:01:13.199Z,14.42
2022-09-23T08:04:20.037Z,14.45
2022-09-23T08:07:24.722Z,14.40
2022-09-23T08:10:28.456Z,14.37
2022-09-23T08:13:32.304Z,14.44
2022-09-23T08:16:36.320Z,14.61
2022-09-23T08:19:40.242Z,14.60
2022-09-23T08:22:43.972Z,14.96
2022-09-23T08:25:47.932Z,14.94
2022-09-23T08:28:51.631Z,15.25
2022-09-23T08:31:55.317Z,15.36
2022-09-23T08:34:59.068Z,15.61
2022-09-23T08:38:02.917Z,15.59
2022-09-23T08:41:08.402Z,15.69
2022-09-23T08:44:21.435Z,15.84
2022-09-23T08:47:34.861Z,15.82
2022-09-23T08:50:40.213Z,15.71
2022-09-23T08:53:54.745Z,15.43
2022-09-23T08:57:03.237Z,15.54
2022-09-23T09:00:07.114Z,15.80
2022-09-23T09:03:13.999Z,16.19
2022-09-23T09:06:17.871Z,16.30
2022-09-23T09:09:29.102Z,16.15
2022-09-23T09:12:37.064Z,16.23
2022-09-23T09:15:46.697Z,16.35
2022-09-23T09:18:53.936Z,16.51
2022-09-23T09:21:59.291Z,16.66
2022-09-23T09:25:07.225Z,16.74
2022-09-23T09:28:14.138Z,16.63
2022-09-23T09:31:44.924Z,16.90
2022-09-23T09:34:55.844Z,17.18
2022-09-23T09:38:06.168Z,17.24
2022-09-23T09:41:10.600Z,17.37
2022-09-23T09:44:14.507Z,17.64
2022-09-23T09:47:46.801Z,17.69
2022-09-23T09:51:07.129Z,17.75
2022-09-23T09:54:11.255Z,17.90
2022-09-23T09:57:15.635Z,17.94
2022-09-23T10:00:44.937Z,18.27
2022-09-23T10:03:59.563Z,17.56
2022-09-23T10:07:24.264Z,17.64
2022-09-23T10:10:57.288Z,17.79
2022-09-23T10:14:18.958Z,17.86
2022-09-23T10:16:48.769Z,17.85
2022-09-23T10:19:27.119Z,17.91
2022-09-23T10:22:00.170Z,17.78
2022-09-23T10:24:30.350Z,17.79
2022-09-23T10:27:09.475Z,17.92
2022-09-23T10:29:48.120Z,17.73
2022-09-23T10:32:28.600Z,17.68
2022-09-23T10:35:03.314Z,17.71
2022-09-23T10:37:38.037Z,17.56
2022-09-23T10:40:48.438Z,17.73
2022-09-23T10:43:38.879Z,17.90
2022-09-23T10:46:30.224Z,17.97
2022-09-23T10:49:34.490Z,18.13
2022-09-23T10:52:19.775Z,18.17
2022-09-23T10:54:58.495Z,17.82
2022-09-23T10:57:42.541Z,17.80
2022-09-23T11:00:46.769Z,17.78
2022-09-23T11:03:17.482Z,17.82
2022-09-23T11:06:22.724Z,17.69
2022-09-23T11:09:14.549Z,17.62
2022-09-23T11:11:53.356Z,17.66
2022-09-23T11:15:01.638Z,17.74
2022-09-23T11:17:55.274Z,17.63
2022-09-23T11:20:35.607Z,17.95
2022-09-23T11:23:24.201Z,17.96
2022-09-23T11:26:23.329Z,17.99
2022-09-23T11:29:11.763Z,17.77
2022-09-23T11:31:58.773Z,17.66
2022-09-23T11:34:55.038Z,17.74
2022-09-23T11:37:30.288Z,17.37
2022-09-23T11:40:15.154Z,17.47
2022-09-23T11:43:18.555Z,17.26
2022-09-23T11:45:54.075Z,17.35
2022-09-23T11:48:29.841Z,17.39
2022-09-23T11:51:02.902Z,17.61
2022-09-23T11:53:53.247Z,17.78
2022-09-23T11:56:35.337Z,17.94
2022-09-23T12:02:20.753Z,18.13
2022-09-23T12:05:12.294Z,18.31
2022-09-23T12:07:57.642Z,18.22
2022-09-23T12:10:44.138Z,18.26
2022-09-23T12:13:19.346Z,18.05
2022-09-23T12:16:03.907Z,18.20
2022-09-23T12:18:38.365Z,18.23
2022-09-23T12:21:50.563Z,18.08
2022-09-23T12:24:47.251Z,18.22
2022-09-23T12:27:32.463Z,18.27
2022-09-23T12:30:04.788Z,18.52
2022-09-23T12:32:32.472Z,18.47
2022-09-23T12:35:00.507Z,18.44
2022-09-23T12:37:37.992Z,18.45
2022-09-23T12:40:22.152Z,18.46
2022-09-23T12:42:49.994Z,18.54
2022-09-23T12:45:37.317Z,18.70
2022-09-23T12:48:43.382Z,18.70
2022-09-23T12:51:16.752Z,18.69
2022-09-23T12:54:23.569Z,18.83
2022-09-23T12:56:56.302Z,18.89
2022-09-23T12:59:30.754Z,18.71
2022-09-23T13:02:11.189Z,18.76
2022-09-23T13:04:59.945Z,18.76
2022-09-23T13:07:31.984Z,18.69
2022-09-23T13:10:23.748Z,18.85
2022-09-23T13:12:52.609Z,19.08
2022-09-23T13:15:33.827Z,19.09
2022-09-23T13:18:50.153Z,18.86
2022-09-23T13:21:39.280Z,18.88
2022-09-23T13:24:31.118Z,19.05
2022-09-23T13:27:22.723Z,19.08
2022-09-23T13:29:57.782Z,19.07
2022-09-23T13:32:35.565Z,18.86
2022-09-23T13:35:05.887Z,18.81
2022-09-23T13:37:46.143Z,18.92
2022-09-23T13:40:28.531Z,18.85
2022-09-23T13:43:07.998Z,18.89
2022-09-23T13:45:40.129Z,18.70
2022-09-23T13:48:11.920Z,18.71
2022-09-23T13:50:43.041Z,18.69
2022-09-23T13:53:13.245Z,18.88
2022-09-23T13:55:41.260Z,18.91
2022-09-23T13:58:18.913Z,19.09
2022-09-23T14:00:46.431Z,19.20
2022-09-23T14:03:25.819Z,19.18
2022-09-23T14:05:54.199Z,19.36
2022-09-23T14:08:22.056Z,19.40
2022-09-23T14:10:48.780Z,19.34
2022-09-23T14:13:27.606Z,19.23
2022-09-23T14:15:58.448Z,19.41
2022-09-23T14:18:46.751Z,19.64
2022-09-23T14:21:37.169Z,19.80
2022-09-23T14:24:10.144Z,19.84
2022-09-23T14:26:39.340Z,19.91
2022-09-23T14:29:12.796Z,19.66
2022-09-23T14:31:40.252Z,19.55
2022-09-23T14:34:47.885Z,19.54
2022-09-23T14:37:42.470Z,19.69
2022-09-23T14:40:17.341Z,20.02
2022-09-23T14:42:56.441Z,20.41
2022-09-23T14:45:26.988Z,20.61
2022-09-23T14:48:00.053Z,20.31
2022-09-23T14:50:48.427Z,20.05
2022-09-23T14:53:24.121Z,19.77
2022-09-23T14:55:54.139Z,19.65
2022-09-23T14:58:23.981Z,19.73
2022-09-23T15:01:00.829Z,19.60
2022-09-23T15:03:30.249Z,19.58
2022-09-23T15:06:08.530Z,19.39
2022-09-23T15:08:35.894Z,19.23
2022-09-23T15:11:07.903Z,19.23
2022-09-23T15:13:41.732Z,19.47
2022-09-23T15:16:08.512Z,19.56
2022-09-23T15:18:37.655Z,19.44
2022-09-23T15:21:19.220Z,19.20
2022-09-23T15:23:54.863Z,19.11
2022-09-23T15:26:40.563Z,19.05
2022-09-23T15:29:10.851Z,19.05
2022-09-23T15:31:37.710Z,18.95
2022-09-23T15:34:07.961Z,18.92
2022-09-23T15:36:34.865Z,19.06
2022-09-23T15:39:03.338Z,19.03
2022-09-23T15:41:32.927Z,19.22
2022-09-23T15:44:11.691Z,19.21
2022-09-23T15:46:40.402Z,19.20
2022-09-23T15:49:16.313Z,19.06
2022-09-23T15:51:42.995Z,18.88
2022-09-23T15:54:12.467Z,18.83
2022-09-23T15:56:39.689Z,19.05
2022-09-23T15:59:06.441Z,19.11
2022-09-23T16:01:36.485Z,19.06
2022-09-23T16:04:04.569Z,18.85
2022-09-23T16:06:32.472Z,18.78
2022-09-23T16:08:59.120Z,18.79
2022-09-23T16:11:31.761Z,18.65
2022-09-23T16:14:00.609Z,18.64
2022-09-23T16:16:27.853Z,18.85
2022-09-23T16:18:55.094Z,18.60
2022-09-23T16:21:25.017Z,18.51
2022-09-23T16:23:53.391Z,18.62
2022-09-23T16:26:24.109Z,18.71
2022-09-23T16:28:53.547Z,18.76
2022-09-23T16:31:22.103Z,18.73
2022-09-23T16:33:49.170Z,18.63
2022-09-23T16:36:34.643Z,18.69
2022-09-23T16:39:04.320Z,18.47
2022-09-23T16:41:31.617Z,18.67
2022-09-23T16:44:00.744Z,18.42
2022-09-23T16:46:29.256Z,18.26
2022-09-23T16:48:57.548Z,18.30
2022-09-23T16:51:29.835Z,18.22
2022-09-23T16:53:58.711Z,18.44
2022-09-23T16:56:28.890Z,18.31
2022-09-23T16:58:56.722Z,18.19
2022-09-23T17:01:45.044Z,18.27
2022-09-23T17:04:12.873Z,18.13
2022-09-23T17:06:48.984Z,18.03
2022-09-23T17:09:20.079Z,17.96
2022-09-23T17:11:53.061Z,18.10
2022-09-23T17:14:21.099Z,18.22
2022-09-23T17:16:47.745Z,18.15
2022-09-23T17:19:14.503Z,18.09
2022-09-23T17:21:41.801Z,18.04
2022-09-23T17:24:08.533Z,18.17
2022-09-23T17:26:35.224Z,18.16
2022-09-23T17:29:02.063Z,18.25
2022-09-23T17:31:30.488Z,18.26
2022-09-23T17:33:57.206Z,18.00
2022-09-23T17:36:23.922Z,18.00
2022-09-23T17:38:53.729Z,17.85
2022-09-23T17:41:20.868Z,17.95
2022-09-23T17:43:47.590Z,17.70
2022-09-23T17:46:18.055Z,17.68
2022-09-23T17:48:46.963Z,17.58
2022-09-23T17:51:16.194Z,17.53
2022-09-23T17:53:45.645Z,17.54
2022-09-23T17:56:20.104Z,17.50
2022-09-23T17:58:48.863Z,17.48
2022-09-23T18:01:19.995Z,17.46
2022-09-23T18:03:47.313Z,17.46
2022-09-23T18:06:17.187Z,17.46
2022-09-23T18:08:45.437Z,17.93
2022-09-23T18:11:22.061Z,18.09
2022-09-23T18:14:03.599Z,18.02
2022-09-23T18:16:41.346Z,17.64
2022-09-23T18:19:11.523Z,17.69
2022-09-23T18:21:40.720Z,17.75
2022-09-23T18:26:59.419Z,17.35
2022-09-23T18:29:26.043Z,17.32
2022-09-23T18:31:52.805Z,17.34
2022-09-23T18:34:20.126Z,17.30
2022-09-23T18:36:47.913Z,17.26
2022-09-23T18:39:14.756Z,17.24
2022-09-23T18:41:41.424Z,17.23
2022-09-23T18:44:08.588Z,17.27
2022-09-23T18:46:35.818Z,17.27
2022-09-23T18:49:23.640Z,17.29
2022-09-23T18:51:59.421Z,17.29
2022-09-23T18:54:29.688Z,17.23
2022-09-23T18:56:57.440Z,17.14
2022-09-23T18:59:27.903Z,17.13
2022-09-23T19:01:55.763Z,17.09
2022-09-23T19:04:24.186Z,17.07
2022-09-23T19:06:51.049Z,17.05
2022-09-23T19:09:18.215Z,17.07
2022-09-23T19:11:45.155Z,17.28
2022-09-23T19:14:12.823Z,17.27
2022-09-23T19:16:40.865Z,17.12
2022-09-23T19:19:08.093Z,17.12
2022-09-23T19:21:35.316Z,17.21
2022-09-23T19:24:06.588Z,17.25
2022-09-23T19:26:40.906Z,17.13
2022-09-23T19:29:12.917Z,17.16
2022-09-23T19:31:40.470Z,17.20
2022-09-23T19:34:13.109Z,17.10
2022-09-23T19:36:42.507Z,16.92
2022-09-23T19:39:31.622Z,16.80
2022-09-23T19:41:59.204Z,16.82
2022-09-23T19:44:26.697Z,16.68
2022-09-23T19:46:56.517Z,16.93
2022-09-23T19:49:24.730Z,16.92
2022-09-23T19:51:52.066Z,17.04
2022-09-23T19:54:20.453Z,17.08
2022-09-23T19:56:48.539Z,16.85
2022-09-23T19:59:18.765Z,16.90
2022-09-23T20:01:47.605Z,16.88
2022-09-23T20:04:15.541Z,16.80
2022-09-23T20:06:42.130Z,16.60
2022-09-23T20:09:09.152Z,16.59
2022-09-23T20:11:35.968Z,16.75
2022-09-23T20:14:04.837Z,16.56
2022-09-23T20:16:34.920Z,16.48
2022-09-23T20:19:02.117Z,16.43
2022-09-23T20:21:29.573Z,16.67
2022-09-23T20:23:57.835Z,16.60
2022-09-23T20:26:43.659Z,16.46
2022-09-23T20:29:10.990Z,16.47
2022-09-23T20:31:40.218Z,16.46
2022-09-23T20:34:08.142Z,16.35
2022-09-23T20:36:35.335Z,16.25
2022-09-23T20:39:05.800Z,16.16
2022-09-23T20:41:36.635Z,16.48
2022-09-23T20:44:06.249Z,16.45
2022-09-23T20:46:33.933Z,16.51
2022-09-23T20:49:01.872Z,16.31
2022-09-23T20:51:28.874Z,16.41
2022-09-23T20:53:55.740Z,16.32
2022-09-23T20:56:23.503Z,16.19
2022-09-23T20:58:52.673Z,16.14
2022-09-23T21:01:20.711Z,16.04
2022-09-23T21:03:50.029Z,16.11
2022-09-23T21:06:18.860Z,16.13
2022-09-23T21:08:46.332Z,16.17
2022-09-23T21:11:15.444Z,15.99
2022-09-23T21:13:47.446Z,15.89
2022-09-23T21:16:17.903Z,15.98
2022-09-23T21:18:45.631Z,15.96
2022-09-23T21:21:14.327Z,15.86
2022-09-23T21:23:42.651Z,15.86
2022-09-23T21:26:12.276Z,15.87
2022-09-23T21:28:41.364Z,15.89
2022-09-23T21:31:14.879Z,15.93
2022-09-23T21:33:41.555Z,15.83
2022-09-23T21:36:09.779Z,15.80
2022-09-23T21:38:37.614Z,15.81
2022-09-23T21:41:07.147Z,15.81
2022-09-23T21:43:38.286Z,15.81
2022-09-23T21:46:10.629Z,15.77
2022-09-23T21:48:43.274Z,16.01
2022-09-23T21:51:13.217Z,16.02
2022-09-23T21:53:41.445Z,15.96
2022-09-23T21:56:18.106Z,15.89
2022-09-23T21:58:47.287Z,15.91
2022-09-23T22:01:22.786Z,15.98
2022-09-23T22:03:55.235Z,15.94
2022-09-23T22:06:26.738Z,15.89
2022-09-23T22:08:58.879Z,15.91
2022-09-23T22:11:51.047Z,15.88
2022-09-23T22:14:20.132Z,15.78
2022-09-23T22:16:47.061Z,15.80
2022-09-23T22:19:14.972Z,15.83
2022-09-23T22:21:44.805Z,15.75
2022-09-23T22:24:12.812Z,15.88
2022-09-23T22:26:41.936Z,15.65
2022-09-23T22:29:32.419Z,15.63
2022-09-23T22:32:19.731Z,15.63
2022-09-23T22:34:50.504Z,16.20
2022-09-23T22:37:20.734Z,15.85
2022-09-23T22:39:47.488Z,15.71
2022-09-23T22:42:14.300Z,15.70
2022-09-23T22:44:41.165Z,16.00
2022-09-23T22:47:09.229Z,16.14
2022-09-23T22:49:36.033Z,15.97
2022-09-23T22:52:07.919Z,15.88
2022-09-23T22:54:35.771Z,15.80
2022-09-23T22:57:07.427Z,15.60
2022-09-23T22:59:37.540Z,15.47
2022-09-23T23:02:07.551Z,15.47
2022-09-23T23:04:34.378Z,15.58
2022-09-23T23:07:01.062Z,15.70
2022-09-23T23:09:27.685Z,15.61
2022-09-23T23:11:54.366Z,15.59
2022-09-23T23:14:21.022Z,15.60
2022-09-23T23:16:49.230Z,15.56
2022-09-23T23:19:18.034Z,15.47
2022-09-23T23:21:45.222Z,15.47
2022-09-23T23:24:20.892Z,15.62
2022-09-23T23:26:48.132Z,15.56
2022-09-23T23:29:16.942Z,15.25
2022-09-23T23:31:43.901Z,15.25
2022-09-23T23:34:20.419Z,15.27
2022-09-23T23:36:54.418Z,15.27
2022-09-23T23:39:23.501Z,15.20
2022-09-23T23:41:57.795Z,15.34
2022-09-23T23:44:25.682Z,15.29
2022-09-23T23:46:53.661Z,15.29
2022-09-23T23:49:21.373Z,15.26
2022-09-23T23:51:48.112Z,15.22
2022-09-23T23:54:15.306Z,15.17
2022-09-23T23:56:42.282Z,15.09
2022-09-23T23:59:08.878Z,15.50
